createdAt,value
2018-04-25T00:00:59.059Z,0.00
2018-04-25T00:01:59.494Z,0.00
2018-04-25T00:02:59.921Z,0.00
2018-04-25T00:04:00.352Z,0.00
2018-04-25T00:05:00.784Z,0.00
2018-04-25T00:06:01.232Z,0.00
2018-04-25T00:07:01.662Z,0.00
2018-04-25T00:08:02.078Z,0.00
2018-04-25T00:09:02.509Z,0.00
2018-04-25T00:10:02.953Z,0.00
2018-04-25T00:11:03.377Z,0.00
2018-04-25T00:12:03.803Z,0.00
2018-04-25T00:13:04.236Z,0.00
2018-04-25T00:14:04.669Z,0.00
2018-04-25T00:15:05.099Z,0.00
2018-04-25T00:16:05.615Z,0.00
2018-04-25T00:17:05.967Z,0.00
2018-04-25T00:18:06.392Z,0.00
2018-04-25T00:19:06.829Z,0.00
2018-04-25T00:20:07.259Z,0.00
2018-04-25T00:21:07.685Z,0.00
2018-04-25T00:22:08.121Z,0.00
2018-04-25T00:23:08.548Z,0.00
2018-04-25T00:24:08.985Z,0.00
2018-04-25T00:25:09.409Z,0.00
2018-04-25T00:26:09.844Z,0.00
2018-04-25T00:27:10.277Z,0.00
2018-04-25T00:28:10.707Z,0.00
2018-04-25T00:29:11.139Z,0.00
2018-04-25T00:30:11.587Z,0.00
2018-04-25T00:31:12.007Z,0.00
2018-04-25T00:32:12.431Z,0.00
2018-04-25T00:33:12.861Z,0.00
2018-04-25T00:34:13.299Z,0.00
2018-04-25T00:35:13.725Z,0.00
2018-04-25T00:36:14.158Z,0.00
2018-04-25T00:37:14.591Z,0.00
2018-04-25T00:38:15.016Z,0.00
2018-04-25T00:39:15.447Z,0.00
2018-04-25T00:40:15.878Z,0.00
2018-04-25T00:41:16.384Z,0.00
2018-04-25T00:42:16.743Z,0.00
2018-04-25T00:43:17.175Z,0.00
2018-04-25T00:44:17.602Z,0.00
2018-04-25T00:45:18.047Z,0.00
2018-04-25T00:46:18.465Z,0.00
2018-04-25T00:47:18.896Z,0.00
2018-04-25T00:48:19.331Z,0.00
2018-04-25T00:49:19.759Z,0.00
2018-04-25T00:50:20.191Z,0.00
2018-04-25T00:51:20.620Z,0.00
2018-04-25T00:52:21.058Z,0.00
2018-04-25T00:53:21.489Z,0.00
2018-04-25T00:54:21.915Z,0.00
2018-04-25T00:55:22.345Z,0.00
2018-04-25T00:56:22.785Z,0.00
2018-04-25T00:57:23.209Z,0.00
2018-04-25T00:58:23.639Z,0.00
2018-04-25T00:59:24.069Z,0.00
2018-04-25T01:00:24.503Z,0.00
2018-04-25T01:01:24.940Z,0.00
2018-04-25T01:02:25.369Z,0.00
2018-04-25T01:03:25.796Z,0.00
2018-04-25T01:04:26.228Z,0.00
2018-04-25T01:05:26.657Z,0.00
2018-04-25T01:06:27.118Z,0.00
2018-04-25T01:07:27.523Z,0.00
2018-04-25T01:08:27.955Z,0.00
2018-04-25T01:09:28.403Z,0.00
2018-04-25T01:10:28.822Z,0.00
2018-04-25T01:11:29.272Z,0.00
2018-04-25T01:12:29.677Z,0.00
2018-04-25T01:13:30.108Z,0.00
2018-04-25T01:14:30.538Z,0.00
2018-04-25T01:15:30.974Z,0.00
2018-04-25T01:16:31.409Z,0.00
2018-04-25T01:17:31.832Z,0.00
2018-04-25T01:18:32.267Z,0.00
2018-04-25T01:19:32.707Z,0.00
2018-04-25T01:20:33.127Z,0.00
2018-04-25T01:21:33.559Z,0.00
2018-04-25T01:22:33.986Z,0.00
2018-04-25T01:23:34.421Z,0.00
2018-04-25T01:24:34.848Z,0.00
2018-04-25T01:25:35.289Z,0.00
2018-04-25T01:26:35.717Z,0.00
2018-04-25T01:27:36.141Z,0.00
2018-04-25T01:28:36.570Z,0.00
2018-04-25T01:29:37.012Z,0.00
2018-04-25T01:30:37.438Z,0.00
2018-04-25T01:31:37.869Z,0.00
2018-04-25T01:32:38.308Z,0.00
2018-04-25T01:33:38.730Z,0.00
2018-04-25T01:34:39.161Z,0.00
2018-04-25T01:35:39.590Z,0.00
2018-04-25T01:36:40.089Z,0.00
2018-04-25T01:37:40.461Z,0.00
2018-04-25T01:38:40.885Z,0.00
2018-04-25T01:39:41.314Z,0.00
2018-04-25T01:40:41.749Z,0.00
2018-04-25T01:41:42.176Z,0.00
2018-04-25T01:42:42.610Z,0.00
2018-04-25T01:43:43.039Z,0.00
2018-04-25T01:44:43.467Z,0.00
2018-04-25T01:45:43.905Z,0.00
2018-04-25T01:46:44.329Z,0.00
2018-04-25T01:47:44.773Z,0.00
2018-04-25T01:48:45.193Z,0.00
2018-04-25T01:49:45.627Z,0.00
2018-04-25T01:50:46.058Z,0.00
2018-04-25T01:51:46.513Z,0.00
2018-04-25T01:52:46.918Z,0.00
2018-04-25T01:53:47.350Z,0.00
2018-04-25T01:54:47.786Z,0.00
2018-04-25T01:55:48.210Z,0.00
2018-04-25T01:56:48.640Z,0.00
2018-04-25T01:57:49.071Z,0.00
2018-04-25T01:58:49.501Z,0.00
2018-04-25T01:59:49.930Z,0.00
2018-04-25T02:00:50.366Z,0.00
2018-04-25T02:01:50.797Z,0.00
2018-04-25T02:02:51.226Z,0.00
2018-04-25T02:03:51.656Z,0.00
2018-04-25T02:04:52.086Z,0.00
2018-04-25T02:05:52.522Z,0.00
2018-04-25T02:06:52.947Z,0.00
2018-04-25T02:07:53.380Z,0.00
2018-04-25T02:08:53.810Z,0.00
2018-04-25T02:09:54.244Z,0.00
2018-04-25T02:10:54.670Z,0.00
2018-04-25T02:11:55.102Z,0.00
2018-04-25T02:12:55.534Z,0.00
2018-04-25T02:13:55.962Z,0.00
2018-04-25T02:14:56.395Z,0.00
2018-04-25T02:15:56.824Z,0.00
2018-04-25T02:16:57.256Z,0.00
2018-04-25T02:17:57.686Z,0.00
2018-04-25T02:18:58.182Z,0.00
2018-04-25T02:19:58.550Z,0.00
2018-04-25T02:20:58.982Z,0.00
2018-04-25T02:21:59.414Z,0.00
2018-04-25T02:22:59.841Z,0.00
2018-04-25T02:24:00.274Z,0.00
2018-04-25T02:25:00.700Z,0.00
2018-04-25T02:26:01.131Z,0.00
2018-04-25T02:27:01.577Z,0.00
2018-04-25T02:28:01.999Z,0.00
2018-04-25T02:29:02.439Z,0.00
2018-04-25T02:30:02.858Z,0.00
2018-04-25T02:31:03.292Z,0.00
2018-04-25T02:32:03.720Z,0.00
2018-04-25T02:33:04.153Z,0.00
2018-04-25T02:34:04.584Z,0.00
2018-04-25T02:35:05.013Z,0.00
2018-04-25T02:36:05.451Z,0.00
2018-04-25T02:37:05.880Z,0.00
2018-04-25T02:38:06.306Z,0.00
2018-04-25T02:39:06.738Z,0.00
2018-04-25T02:40:07.167Z,0.00
2018-04-25T02:41:07.604Z,0.00
2018-04-25T02:42:08.031Z,0.00
2018-04-25T02:43:08.463Z,0.00
2018-04-25T02:44:08.893Z,0.00
2018-04-25T02:45:09.321Z,0.00
2018-04-25T02:46:09.754Z,0.00
2018-04-25T02:47:10.184Z,0.00
2018-04-25T02:48:10.617Z,0.00
2018-04-25T02:49:11.045Z,0.00
2018-04-25T02:50:11.477Z,0.00
2018-04-25T02:51:11.910Z,0.00
2018-04-25T02:52:12.338Z,0.00
2018-04-25T02:53:12.771Z,0.00
2018-04-25T02:54:13.202Z,0.00
2018-04-25T02:55:13.634Z,0.00
2018-04-25T02:56:14.062Z,0.00
2018-04-25T02:57:14.494Z,0.00
2018-04-25T02:58:14.923Z,0.00
2018-04-25T02:59:15.350Z,0.00
2018-04-25T03:00:15.781Z,0.00
2018-04-25T03:01:16.213Z,0.00
2018-04-25T03:02:16.668Z,0.00
2018-04-25T03:03:17.073Z,0.00
2018-04-25T03:04:17.505Z,0.00
2018-04-25T03:05:17.940Z,0.00
2018-04-25T03:06:18.364Z,0.00
2018-04-25T03:07:18.794Z,0.00
2018-04-25T03:08:19.229Z,0.00
2018-04-25T03:09:19.655Z,0.00
2018-04-25T03:10:20.085Z,0.00
2018-04-25T03:11:20.516Z,0.00
2018-04-25T03:12:20.951Z,0.00
2018-04-25T03:13:21.376Z,0.00
2018-04-25T03:14:21.805Z,0.00
2018-04-25T03:15:22.245Z,0.00
2018-04-25T03:16:22.671Z,0.00
2018-04-25T03:17:23.099Z,4.00
2018-04-25T03:18:23.527Z,4.00
2018-04-25T03:19:23.958Z,0.00
2018-04-25T03:20:24.395Z,0.00
2018-04-25T03:21:24.817Z,4.00
2018-04-25T03:22:25.250Z,4.00
2018-04-25T03:23:25.682Z,4.00
2018-04-25T03:24:26.110Z,4.00
2018-04-25T03:25:26.539Z,8.00
2018-04-25T03:26:26.968Z,4.00
2018-04-25T03:27:27.402Z,8.00
2018-04-25T03:28:27.827Z,8.00
2018-04-25T03:29:28.261Z,8.00
2018-04-25T03:30:28.692Z,8.00
2018-04-25T03:31:29.119Z,12.00
2018-04-25T03:32:29.549Z,12.00
2018-04-25T03:33:29.978Z,12.00
2018-04-25T03:34:30.407Z,12.00
2018-04-25T03:35:30.842Z,12.00
2018-04-25T03:36:31.271Z,12.00
2018-04-25T03:37:31.699Z,12.00
2018-04-25T03:38:32.136Z,16.00
2018-04-25T03:39:32.559Z,12.00
2018-04-25T03:40:32.987Z,16.00
2018-04-25T03:41:33.420Z,20.00
2018-04-25T03:42:33.859Z,24.00
2018-04-25T03:43:34.277Z,32.00
2018-04-25T03:44:34.711Z,36.00
2018-04-25T03:45:35.141Z,40.00
2018-04-25T03:46:35.569Z,44.00
2018-04-25T03:47:35.997Z,44.00
2018-04-25T03:48:36.429Z,40.00
2018-04-25T03:49:36.867Z,44.00
2018-04-25T03:50:37.291Z,44.00
2018-04-25T03:51:37.719Z,48.00
2018-04-25T03:52:38.147Z,52.00
2018-04-25T03:53:38.581Z,52.00
2018-04-25T03:54:39.009Z,52.00
2018-04-25T03:55:39.441Z,60.00
2018-04-25T03:56:39.917Z,64.00
2018-04-25T03:57:40.310Z,64.00
2018-04-25T03:58:40.735Z,76.00
2018-04-25T03:59:41.158Z,92.00
2018-04-25T04:00:41.591Z,108.00
2018-04-25T04:01:42.033Z,108.00
2018-04-25T04:02:42.462Z,112.00
2018-04-25T04:03:42.886Z,112.00
2018-04-25T04:04:43.318Z,96.00
2018-04-25T04:05:43.743Z,80.00
2018-04-25T04:06:44.174Z,68.00
2018-04-25T04:07:44.608Z,64.00
2018-04-25T04:08:45.047Z,72.00
2018-04-25T04:09:45.465Z,84.00
2018-04-25T04:10:45.892Z,76.00
2018-04-25T04:11:46.327Z,68.00
2018-04-25T04:12:46.753Z,68.00
2018-04-25T04:13:47.189Z,64.00
2018-04-25T04:14:47.617Z,56.00
2018-04-25T04:15:48.046Z,56.00
2018-04-25T04:16:48.484Z,60.00
2018-04-25T04:17:48.905Z,60.00
2018-04-25T04:18:49.337Z,60.00
2018-04-25T04:19:49.773Z,64.00
2018-04-25T04:20:50.203Z,72.00
2018-04-25T04:21:50.630Z,84.00
2018-04-25T04:22:51.055Z,100.00
2018-04-25T04:23:51.493Z,128.00
2018-04-25T04:24:51.929Z,172.00
2018-04-25T04:25:52.353Z,212.00
2018-04-25T04:26:52.785Z,256.00
2018-04-25T04:27:53.216Z,308.00
2018-04-25T04:28:53.643Z,324.00
2018-04-25T04:29:54.072Z,372.00
2018-04-25T04:30:54.503Z,404.00
2018-04-25T04:31:54.937Z,420.00
2018-04-25T04:32:55.364Z,432.00
2018-04-25T04:33:55.797Z,464.00
2018-04-25T04:34:56.225Z,488.00
2018-04-25T04:35:56.655Z,548.00
2018-04-25T04:36:57.086Z,604.00
2018-04-25T04:37:57.588Z,640.00
2018-04-25T04:38:57.956Z,696.00
2018-04-25T04:39:58.378Z,800.00
2018-04-25T04:40:58.810Z,876.00
2018-04-25T04:41:59.236Z,964.00
2018-04-25T04:42:59.671Z,1088.00
2018-04-25T04:44:00.100Z,1140.00
2018-04-25T04:45:00.536Z,1124.00
2018-04-25T04:46:00.959Z,1020.00
2018-04-25T04:47:01.403Z,904.00
2018-04-25T04:48:01.840Z,868.00
2018-04-25T04:49:02.252Z,896.00
2018-04-25T04:50:02.712Z,972.00
2018-04-25T04:51:03.143Z,1088.00
2018-04-25T04:52:03.552Z,1204.00
2018-04-25T04:53:04.003Z,1280.00
2018-04-25T04:54:04.437Z,1232.00
2018-04-25T04:55:04.865Z,1144.00
2018-04-25T04:56:05.275Z,1096.00
2018-04-25T04:57:05.698Z,1080.00
2018-04-25T04:58:06.122Z,1064.00
2018-04-25T04:59:06.559Z,1064.00
2018-04-25T05:00:06.999Z,1108.00
2018-04-25T05:01:07.428Z,1000.00
2018-04-25T05:02:07.850Z,916.00
2018-04-25T05:03:08.331Z,876.00
2018-04-25T05:04:08.713Z,880.00
2018-04-25T05:05:09.163Z,976.00
2018-04-25T05:06:09.575Z,1092.00
2018-04-25T05:07:10.002Z,1140.00
2018-04-25T05:08:10.444Z,1152.00
2018-04-25T05:09:10.867Z,1188.00
2018-04-25T05:10:11.306Z,1172.00
2018-04-25T05:11:11.725Z,1152.00
2018-04-25T05:12:12.187Z,1284.00
2018-04-25T05:13:12.685Z,1628.00
2018-04-25T05:14:13.012Z,1856.00
2018-04-25T05:15:13.455Z,1852.00
2018-04-25T05:16:13.902Z,2196.00
2018-04-25T05:17:14.346Z,2464.00
2018-04-25T05:18:14.745Z,2436.00
2018-04-25T05:19:15.174Z,2288.00
2018-04-25T05:20:15.634Z,2128.00
2018-04-25T05:21:16.035Z,2144.00
2018-04-25T05:22:16.466Z,2184.00
2018-04-25T05:23:16.895Z,2076.00
2018-04-25T05:24:17.339Z,2012.00
2018-04-25T05:25:17.769Z,1964.00
2018-04-25T05:26:18.193Z,1964.00
2018-04-25T05:27:18.627Z,2160.00
2018-04-25T05:28:19.055Z,2308.00
2018-04-25T05:29:19.499Z,2404.00
2018-04-25T05:30:19.925Z,2404.00
2018-04-25T05:31:20.388Z,2304.00
2018-04-25T05:32:20.779Z,2032.00
2018-04-25T05:33:21.210Z,1812.00
2018-04-25T05:34:21.660Z,2052.00
2018-04-25T05:35:22.074Z,2004.00
2018-04-25T05:36:22.505Z,1836.00
2018-04-25T05:37:22.949Z,1744.00
2018-04-25T05:38:23.377Z,1728.00
2018-04-25T05:39:23.801Z,2344.00
2018-04-25T05:40:24.248Z,2732.00
2018-04-25T05:41:24.705Z,2132.00
2018-04-25T05:42:25.147Z,1520.00
2018-04-25T05:43:25.532Z,1252.00
2018-04-25T05:44:25.965Z,1216.00
2018-04-25T05:45:26.415Z,1324.00
2018-04-25T05:46:26.816Z,1552.00
2018-04-25T05:47:27.263Z,1840.00
2018-04-25T05:48:27.688Z,1988.00
2018-04-25T05:49:28.131Z,1988.00
2018-04-25T05:50:28.542Z,1676.00
2018-04-25T05:51:28.980Z,1408.00
2018-04-25T05:52:29.407Z,1368.00
2018-04-25T05:53:29.836Z,1680.00
2018-04-25T05:54:30.281Z,2392.00
2018-04-25T05:55:30.708Z,3304.00
2018-04-25T05:56:31.134Z,3552.00
2018-04-25T05:57:31.587Z,2972.00
2018-04-25T05:58:31.993Z,2684.00
2018-04-25T05:59:32.423Z,2716.00
2018-04-25T06:00:32.865Z,2640.00
2018-04-25T06:01:33.295Z,2400.00
2018-04-25T06:02:33.720Z,2524.00
2018-04-25T06:03:34.193Z,2632.00
2018-04-25T06:04:34.601Z,2424.00
2018-04-25T06:05:35.031Z,2144.00
2018-04-25T06:06:35.454Z,1908.00
2018-04-25T06:07:35.878Z,1780.00
2018-04-25T06:08:36.313Z,1712.00
2018-04-25T06:09:36.729Z,1612.00
2018-04-25T06:10:37.189Z,1608.00
2018-04-25T06:11:37.594Z,1740.00
2018-04-25T06:12:38.113Z,2028.00
2018-04-25T06:13:38.466Z,2524.00
2018-04-25T06:14:38.886Z,2720.00
2018-04-25T06:15:39.319Z,2588.00
2018-04-25T06:16:39.754Z,2844.00
2018-04-25T06:17:40.183Z,2524.00
2018-04-25T06:18:40.623Z,2624.00
2018-04-25T06:19:41.063Z,2652.00
2018-04-25T06:20:41.502Z,2484.00
2018-04-25T06:21:41.919Z,2308.00
2018-04-25T06:22:42.343Z,2012.00
2018-04-25T06:23:42.773Z,1816.00
2018-04-25T06:24:43.199Z,1656.00
2018-04-25T06:25:43.623Z,1528.00
2018-04-25T06:26:44.064Z,1564.00
2018-04-25T06:27:44.505Z,1620.00
2018-04-25T06:28:44.926Z,1656.00
2018-04-25T06:29:45.350Z,1660.00
2018-04-25T06:30:45.791Z,1608.00
2018-04-25T06:31:46.242Z,1600.00
2018-04-25T06:32:46.658Z,1624.00
2018-04-25T06:33:47.080Z,1616.00
2018-04-25T06:34:47.572Z,1524.00
2018-04-25T06:35:47.943Z,1384.00
2018-04-25T06:36:48.376Z,1264.00
2018-04-25T06:37:48.804Z,1396.00
2018-04-25T06:38:49.233Z,1632.00
2018-04-25T06:39:49.670Z,1660.00
2018-04-25T06:40:50.100Z,1592.00
2018-04-25T06:41:50.531Z,1640.00
2018-04-25T06:42:50.967Z,1596.00
2018-04-25T06:43:51.391Z,1596.00
2018-04-25T06:44:51.903Z,1692.00
2018-04-25T06:45:52.253Z,1952.00
2018-04-25T06:46:52.684Z,2056.00
2018-04-25T06:47:53.117Z,2332.00
2018-04-25T06:48:53.547Z,2932.00
2018-04-25T06:49:53.980Z,3200.00
2018-04-25T06:50:54.414Z,3068.00
2018-04-25T06:51:54.840Z,2496.00
2018-04-25T06:52:55.273Z,2472.00
2018-04-25T06:53:55.705Z,2592.00
2018-04-25T06:54:56.142Z,2560.00
2018-04-25T06:55:56.567Z,2060.00
2018-04-25T06:56:57.005Z,1752.00
2018-04-25T06:57:57.452Z,1908.00
2018-04-25T06:58:57.868Z,1840.00
2018-04-25T06:59:58.291Z,1632.00
2018-04-25T07:00:58.726Z,1280.00
2018-04-25T07:01:59.160Z,1000.00
2018-04-25T07:02:59.591Z,1196.00
2018-04-25T07:04:00.027Z,1844.00
2018-04-25T07:05:00.454Z,1928.00
2018-04-25T07:06:00.893Z,1700.00
2018-04-25T07:07:01.323Z,1440.00
2018-04-25T07:08:01.840Z,1780.00
2018-04-25T07:09:02.182Z,2040.00
2018-04-25T07:10:02.617Z,2032.00
2018-04-25T07:11:03.049Z,1972.00
2018-04-25T07:12:03.478Z,2316.00
2018-04-25T07:13:03.918Z,2788.00
2018-04-25T07:14:04.428Z,3616.00
2018-04-25T07:15:04.772Z,3944.00
2018-04-25T07:16:05.226Z,3868.00
2018-04-25T07:17:05.643Z,3204.00
2018-04-25T07:18:06.073Z,2784.00
2018-04-25T07:19:06.506Z,2632.00
2018-04-25T07:20:06.993Z,1960.00
2018-04-25T07:21:07.369Z,1368.00
2018-04-25T07:22:07.805Z,1212.00
2018-04-25T07:23:08.244Z,1296.00
2018-04-25T07:24:08.676Z,1504.00
2018-04-25T07:25:09.120Z,1708.00
2018-04-25T07:26:09.539Z,1940.00
2018-04-25T07:27:09.964Z,2056.00
2018-04-25T07:28:10.396Z,2252.00
2018-04-25T07:29:10.830Z,2336.00
2018-04-25T07:30:11.261Z,2432.00
2018-04-25T07:31:11.694Z,2228.00
2018-04-25T07:32:12.131Z,1876.00
2018-04-25T07:33:12.554Z,1900.00
2018-04-25T07:34:12.997Z,2116.00
2018-04-25T07:35:13.423Z,2320.00
2018-04-25T07:36:13.910Z,2580.00
2018-04-25T07:37:14.287Z,2824.00
2018-04-25T07:38:14.719Z,2624.00
2018-04-25T07:39:15.158Z,2340.00
2018-04-25T07:40:15.585Z,2156.00
2018-04-25T07:41:16.024Z,2324.00
2018-04-25T07:42:16.454Z,2400.00
2018-04-25T07:43:16.886Z,2672.00
2018-04-25T07:44:17.316Z,2808.00
2018-04-25T07:45:17.750Z,2884.00
2018-04-25T07:46:18.179Z,2992.00
2018-04-25T07:47:18.615Z,2960.00
2018-04-25T07:48:19.047Z,2680.00
2018-04-25T07:49:19.483Z,2608.00
2018-04-25T07:50:19.915Z,2940.00
2018-04-25T07:51:20.348Z,3108.00
2018-04-25T07:52:20.836Z,2900.00
2018-04-25T07:53:21.215Z,2816.00
2018-04-25T07:54:21.644Z,2836.00
2018-04-25T07:55:22.076Z,2272.00
2018-04-25T07:56:22.511Z,2532.00
2018-04-25T07:57:22.943Z,3200.00
2018-04-25T07:58:23.378Z,4000.00
2018-04-25T07:59:23.810Z,3256.00
2018-04-25T08:00:24.242Z,2640.00
2018-04-25T08:01:24.675Z,2624.00
2018-04-25T08:02:25.110Z,3120.00
2018-04-25T08:03:25.544Z,3548.00
2018-04-25T08:04:25.979Z,3660.00
2018-04-25T08:05:26.411Z,3332.00
2018-04-25T08:06:26.841Z,3380.00
2018-04-25T08:07:27.298Z,3352.00
2018-04-25T08:08:27.715Z,3484.00
2018-04-25T08:09:28.149Z,4220.00
2018-04-25T08:10:28.584Z,4228.00
2018-04-25T08:11:29.009Z,4372.00
2018-04-25T08:12:29.440Z,5848.00
2018-04-25T08:13:29.877Z,8888.00
2018-04-25T08:14:30.312Z,10348.00
2018-04-25T08:15:30.746Z,13836.00
2018-04-25T08:16:31.176Z,11720.00
2018-04-25T08:17:31.622Z,11160.00
2018-04-25T08:18:32.048Z,10628.00
2018-04-25T08:19:32.488Z,11632.00
2018-04-25T08:20:32.914Z,13640.00
2018-04-25T08:21:33.348Z,13484.00
2018-04-25T08:22:33.783Z,13460.00
2018-04-25T08:23:34.220Z,15944.00
2018-04-25T08:24:37.534Z,12152.00
2018-04-25T08:25:36.040Z,9992.00
2018-04-25T08:26:35.532Z,10372.00
2018-04-25T08:27:50.539Z,10904.00
2018-04-25T08:28:39.057Z,9780.00
2018-04-25T08:29:36.840Z,11372.00
2018-04-25T08:30:37.269Z,11284.00
2018-04-25T08:31:37.705Z,11120.00
2018-04-25T08:32:38.145Z,10604.00
2018-04-25T08:33:38.624Z,10172.00
2018-04-25T08:35:00.181Z,9420.00
2018-04-25T08:35:39.461Z,9276.00
2018-04-25T08:36:39.890Z,9112.00
2018-04-25T08:37:40.339Z,8768.00
2018-04-25T08:38:40.774Z,7824.00
2018-04-25T08:39:41.199Z,6136.00
2018-04-25T08:40:41.641Z,4624.00
2018-04-25T08:41:42.085Z,3944.00
2018-04-25T08:42:42.520Z,4012.00
2018-04-25T08:43:42.980Z,4248.00
2018-04-25T08:44:43.408Z,4660.00
2018-04-25T08:45:43.817Z,4776.00
2018-04-25T08:46:44.277Z,4952.00
2018-04-25T08:47:44.699Z,6144.00
2018-04-25T08:48:45.134Z,8520.00
2018-04-25T08:49:46.549Z,10624.00
2018-04-25T08:50:46.008Z,13068.00
2018-04-25T08:51:46.435Z,13192.00
2018-04-25T08:52:46.907Z,10208.00
2018-04-25T08:53:50.050Z,8572.00
2018-04-25T08:54:47.756Z,8412.00
2018-04-25T08:55:48.197Z,10316.00
2018-04-25T08:56:51.570Z,11580.00
2018-04-25T08:57:49.055Z,9592.00
2018-04-25T08:58:52.050Z,9188.00
2018-04-25T08:59:49.947Z,10844.00
2018-04-25T09:00:50.373Z,13820.00
2018-04-25T09:01:50.814Z,13564.00
2018-04-25T09:02:51.247Z,11252.00
2018-04-25T09:03:51.689Z,10128.00
2018-04-25T09:04:52.159Z,11372.00
2018-04-25T09:05:52.652Z,11776.00
2018-04-25T09:06:53.022Z,12064.00
2018-04-25T09:07:53.459Z,18336.00
2018-04-25T09:08:53.892Z,21888.00
2018-04-25T09:09:54.314Z,22368.00
2018-04-25T09:10:54.795Z,28416.00
2018-04-25T09:11:55.191Z,21792.00
2018-04-25T09:12:55.622Z,16960.00
2018-04-25T09:13:56.065Z,16928.00
2018-04-25T09:14:56.512Z,20320.00
2018-04-25T09:15:56.942Z,34368.00
2018-04-25T09:16:57.387Z,40672.00
2018-04-25T09:17:57.829Z,24768.00
2018-04-25T09:18:58.264Z,24160.00
2018-04-25T09:19:58.702Z,41920.00
2018-04-25T09:20:59.176Z,26528.00
2018-04-25T09:21:59.582Z,36928.00
2018-04-25T09:23:55.233Z,76096.00
2018-04-25T09:24:55.663Z,43968.00
2018-04-25T09:26:50.263Z,84096.00
2018-04-25T09:27:50.721Z,76928.00
2018-04-25T09:29:45.307Z,27648.00
2018-04-25T09:30:45.741Z,49664.00
2018-04-25T09:32:40.354Z,84448.00
2018-04-25T09:33:40.807Z,64224.00
2018-04-25T09:35:35.408Z,56960.00
2018-04-25T09:36:35.853Z,25152.00
2018-04-25T09:38:30.449Z,35552.00
2018-04-25T09:39:30.902Z,54624.00
2018-04-25T09:41:25.582Z,47872.00
2018-04-25T09:42:25.964Z,91328.00
2018-04-25T09:44:20.572Z,29088.00
2018-04-25T09:45:21.024Z,26208.00
2018-04-25T09:47:15.630Z,22464.00
2018-04-25T09:48:16.078Z,11888.00
2018-04-25T09:50:10.690Z,11080.00
2018-04-25T09:51:11.130Z,11492.00
2018-04-25T09:53:06.716Z,14716.00
2018-04-25T09:54:07.162Z,13692.00
2018-04-25T09:56:01.765Z,20288.00
2018-04-25T09:57:02.200Z,27040.00
2018-04-25T09:58:56.802Z,10952.00
2018-04-25T09:59:57.252Z,16352.00
2018-04-25T10:01:51.858Z,16448.00
2018-04-25T10:02:52.285Z,15856.00
2018-04-25T10:04:47.885Z,8820.00
2018-04-25T10:05:48.314Z,8272.00
2018-04-25T10:07:43.895Z,10356.00
2018-04-25T10:08:44.329Z,10232.00
2018-04-25T10:10:38.933Z,10824.00
2018-04-25T10:11:39.364Z,10144.00
2018-04-25T10:13:33.960Z,9508.00
2018-04-25T10:14:34.411Z,8172.00
2018-04-25T10:16:28.993Z,4260.00
2018-04-25T10:17:29.424Z,4364.00
2018-04-25T10:19:25.014Z,7080.00
2018-04-25T10:20:25.437Z,17696.00
2018-04-25T10:22:20.045Z,20800.00
2018-04-25T10:23:20.487Z,35584.00
2018-04-25T10:25:16.046Z,81472.00
2018-04-25T10:26:16.514Z,69312.00
2018-04-25T10:28:11.090Z,17984.00
2018-04-25T10:29:11.535Z,29856.00
2018-04-25T10:31:06.120Z,60832.00
2018-04-25T10:32:06.653Z,18016.00
2018-04-25T10:34:01.187Z,8608.00
2018-04-25T10:35:01.631Z,6980.00
2018-04-25T10:36:02.077Z,24320.00
2018-04-25T10:37:02.521Z,12204.00
2018-04-25T10:38:02.970Z,8968.00
2018-04-25T10:39:03.415Z,6240.00
2018-04-25T10:40:03.863Z,6108.00
2018-04-25T10:41:04.307Z,6960.00
2018-04-25T10:42:04.754Z,6104.00
2018-04-25T10:43:05.201Z,6024.00
2018-04-25T10:44:05.651Z,6040.00
2018-04-25T10:45:06.090Z,6440.00
2018-04-25T10:46:06.528Z,6444.00
2018-04-25T10:47:06.978Z,6324.00
2018-04-25T10:48:07.419Z,6496.00
2018-04-25T10:49:07.858Z,6324.00
2018-04-25T10:50:08.304Z,6224.00
2018-04-25T10:51:08.745Z,6100.00
2018-04-25T10:52:09.188Z,6836.00
2018-04-25T10:53:09.632Z,6780.00
2018-04-25T10:54:10.070Z,7492.00
2018-04-25T10:55:10.512Z,8760.00
2018-04-25T10:56:10.948Z,8388.00
2018-04-25T10:57:11.398Z,7256.00
2018-04-25T10:58:11.834Z,5332.00
2018-04-25T10:59:12.278Z,4408.00
2018-04-25T11:00:12.713Z,3876.00
2018-04-25T11:01:13.158Z,3188.00
2018-04-25T11:02:13.594Z,2732.00
2018-04-25T11:03:14.033Z,3316.00
2018-04-25T11:04:14.475Z,2440.00
2018-04-25T11:05:14.918Z,1844.00
2018-04-25T11:06:15.356Z,1756.00
2018-04-25T11:07:15.794Z,2864.00
2018-04-25T11:08:16.241Z,3076.00
2018-04-25T11:09:16.671Z,3268.00
2018-04-25T11:10:17.126Z,3816.00
2018-04-25T11:11:17.553Z,3216.00
2018-04-25T11:12:18.006Z,2860.00
2018-04-25T11:13:18.435Z,1804.00
2018-04-25T11:14:18.870Z,1288.00
2018-04-25T11:15:19.309Z,1704.00
2018-04-25T11:16:19.743Z,2536.00
2018-04-25T11:17:20.185Z,4860.00
2018-04-25T11:18:20.621Z,6044.00
2018-04-25T11:19:21.057Z,5716.00
2018-04-25T11:20:21.550Z,5696.00
2018-04-25T11:21:21.922Z,5040.00
2018-04-25T11:22:22.366Z,4032.00
2018-04-25T11:23:22.792Z,3472.00
2018-04-25T11:24:23.229Z,3244.00
2018-04-25T11:25:23.663Z,3036.00
2018-04-25T11:26:24.159Z,2564.00
2018-04-25T11:27:24.533Z,2788.00
2018-04-25T11:28:24.967Z,2808.00
2018-04-25T11:29:25.402Z,2664.00
2018-04-25T11:30:25.836Z,3012.00
2018-04-25T11:31:26.277Z,3728.00
2018-04-25T11:32:26.708Z,3832.00
2018-04-25T11:33:27.135Z,3528.00
2018-04-25T11:34:27.565Z,3488.00
2018-04-25T11:35:27.999Z,4112.00
2018-04-25T11:36:28.491Z,4800.00
2018-04-25T11:37:28.873Z,4952.00
2018-04-25T11:38:29.293Z,4992.00
2018-04-25T11:39:29.733Z,4900.00
2018-04-25T11:40:30.162Z,4540.00
2018-04-25T11:41:30.595Z,4668.00
2018-04-25T11:42:31.028Z,4612.00
2018-04-25T11:43:31.462Z,5424.00
2018-04-25T11:44:31.898Z,7532.00
2018-04-25T11:45:32.326Z,8172.00
2018-04-25T11:46:32.774Z,8448.00
2018-04-25T11:47:33.186Z,11052.00
2018-04-25T11:48:33.629Z,18880.00
2018-04-25T11:49:34.054Z,15552.00
2018-04-25T11:50:34.490Z,17376.00
2018-04-25T11:51:34.923Z,16540.00
2018-04-25T11:52:35.366Z,13192.00
2018-04-25T11:53:35.790Z,11756.00
2018-04-25T11:54:36.220Z,11828.00
2018-04-25T11:55:36.656Z,11328.00
2018-04-25T11:56:37.090Z,13752.00
2018-04-25T11:57:37.533Z,19264.00
2018-04-25T11:58:38.016Z,17664.00
2018-04-25T11:59:38.447Z,11104.00
2018-04-25T12:00:38.831Z,10136.00
2018-04-25T12:01:39.261Z,13468.00
2018-04-25T12:02:39.694Z,11680.00
2018-04-25T12:03:40.127Z,8424.00
2018-04-25T12:04:40.600Z,7700.00
2018-04-25T12:05:41.000Z,7888.00
2018-04-25T12:06:41.436Z,6544.00
2018-04-25T12:07:41.867Z,6432.00
2018-04-25T12:08:42.305Z,7556.00
2018-04-25T12:09:42.745Z,6092.00
2018-04-25T12:10:43.176Z,5404.00
2018-04-25T12:11:43.620Z,5276.00
2018-04-25T12:12:44.042Z,5292.00
2018-04-25T12:13:44.482Z,5424.00
2018-04-25T12:14:44.921Z,5492.00
2018-04-25T12:15:45.351Z,5500.00
2018-04-25T12:16:45.787Z,5436.00
2018-04-25T12:17:46.223Z,5376.00
2018-04-25T12:18:46.679Z,5424.00
2018-04-25T12:19:47.091Z,5428.00
2018-04-25T12:20:47.533Z,5856.00
2018-04-25T12:21:47.955Z,6220.00
2018-04-25T12:22:48.403Z,6364.00
2018-04-25T12:23:48.828Z,6440.00
2018-04-25T12:24:49.263Z,6348.00
2018-04-25T12:25:49.700Z,6652.00
2018-04-25T12:26:50.134Z,6792.00
2018-04-25T12:27:50.572Z,6224.00
2018-04-25T12:28:51.005Z,6256.00
2018-04-25T12:29:51.437Z,7164.00
2018-04-25T12:30:51.874Z,9408.00
2018-04-25T12:31:52.311Z,8604.00
2018-04-25T12:32:52.743Z,9556.00
2018-04-25T12:33:53.187Z,8340.00
2018-04-25T12:34:53.620Z,9992.00
2018-04-25T12:35:54.156Z,8464.00
2018-04-25T12:36:54.502Z,11708.00
2018-04-25T12:37:54.925Z,12024.00
2018-04-25T12:38:55.373Z,8044.00
2018-04-25T12:39:55.796Z,4532.00
2018-04-25T12:40:56.235Z,3492.00
2018-04-25T12:41:56.670Z,3488.00
2018-04-25T12:42:57.117Z,3520.00
2018-04-25T12:43:57.556Z,8224.00
2018-04-25T12:44:57.984Z,11832.00
2018-04-25T12:45:58.424Z,10220.00
2018-04-25T12:46:58.854Z,7408.00
2018-04-25T12:47:59.285Z,6208.00
2018-04-25T12:48:59.725Z,6004.00
2018-04-25T12:50:00.171Z,6084.00
2018-04-25T12:51:00.654Z,6128.00
2018-04-25T12:52:01.038Z,6244.00
2018-04-25T12:53:01.471Z,6720.00
2018-04-25T12:54:01.925Z,10280.00